»·PEaware :: ASA1927 KLAX-KSFO

ASA1927 :: KLAX-KSFO

FLIGHT INFORMATION

Flight Status: Arrived
Operator:
Alaska Airlines
More flights by this operator :: More flights under this callsign
Pilot: Jack W. (13780)
Aircraft: BOEING 737-900
(B739)
More flights by this aircraft type
Origin: KLAX Los Angeles Intl
United States
Destination: KSFO San Francisco Intl
United States
More flights between these airports :: More routes between these airports
Route: SUMMR1 STOKD DCT SERFR SERFR3
File this flight plan on PilotEdge
Remarks:
Altitude:
(Current/Filed)
34,000ft
Speed:
(Current/Filed)
0kts
Departed: 10-Aug-18 01:54 PM
Arrived: 10-Aug-18 02:49 PM
Distance/Time
Traveled:
293nm/0:54
Distance/Time
To Go:
Arrived

Flight Plot

Page will automatically refresh every two minutes.

Flight plan parsing failed; only flown route is shown


Map Options




Map Legend


Flown Route
Filed Route
Departure Airport
Arrival Airport
Navaid (VOR, NDB)
Fix

Horizontal Profiles

Position Reports

Time Latitude Longitude Heading Altitude Ground
Speed
10-Aug-18 13:16 33.940434 -118.402514 86 124ft 0kts
10-Aug-18 13:17 33.940434 -118.402514 86 124ft 0kts
10-Aug-18 13:18 33.940434 -118.402514 86 124ft 0kts
10-Aug-18 13:19 33.940434 -118.402514 86 124ft 0kts
10-Aug-18 13:20 33.940434 -118.402514 86 124ft 0kts
10-Aug-18 13:21 33.940434 -118.402514 86 124ft 0kts
10-Aug-18 13:22 33.940434 -118.402514 86 124ft 0kts
10-Aug-18 13:23 33.940434 -118.402514 86 124ft 0kts
10-Aug-18 13:24 33.940434 -118.402514 86 124ft 0kts
10-Aug-18 13:25 33.940434 -118.402514 86 124ft 0kts
10-Aug-18 13:26 33.940434 -118.402514 86 124ft 0kts
10-Aug-18 13:27 33.940434 -118.402514 86 124ft 0kts
10-Aug-18 13:28 33.940434 -118.402514 86 124ft 0kts
10-Aug-18 13:29 33.940434 -118.402514 86 124ft 0kts
10-Aug-18 13:30 33.940434 -118.402514 86 124ft 0kts
10-Aug-18 13:31 33.940434 -118.402514 86 124ft 0kts
10-Aug-18 13:32 33.940434 -118.402514 86 124ft 0kts
10-Aug-18 13:33 33.940434 -118.402514 85 124ft 0kts
10-Aug-18 13:34 33.940434 -118.402514 85 124ft 0kts
10-Aug-18 13:35 33.940434 -118.402514 85 124ft 0kts
10-Aug-18 13:36 33.940434 -118.402514 85 124ft 0kts
10-Aug-18 13:37 33.940434 -118.402514 85 124ft 0kts
10-Aug-18 13:38 33.940434 -118.402514 86 124ft 0kts
10-Aug-18 13:39 33.940434 -118.402514 86 124ft 0kts
10-Aug-18 13:40 33.940434 -118.402514 86 124ft 0kts
10-Aug-18 13:41 33.940434 -118.402514 86 124ft 0kts
10-Aug-18 13:42 33.940434 -118.402514 86 124ft 0kts
10-Aug-18 13:43 33.940434 -118.402514 86 124ft 0kts
10-Aug-18 13:44 33.940434 -118.402514 86 124ft 0kts
10-Aug-18 13:45 33.940669 -118.403089 149 125ft 2kts
10-Aug-18 13:46 33.940896 -118.403182 175 125ft 0kts
10-Aug-18 13:47 33.940878 -118.403180 175 125ft 1kts
10-Aug-18 13:48 33.940382 -118.403094 172 125ft 0kts
10-Aug-18 13:49 33.938648 -118.402772 138 125ft 8kts
10-Aug-18 13:50 33.939004 -118.397832 82 117ft 18kts
10-Aug-18 13:51 33.939525 -118.392495 84 109ft 19kts
10-Aug-18 13:52 33.940195 -118.385988 82 105ft 17kts
10-Aug-18 13:53 33.940410 -118.384002 83 104ft 4kts
10-Aug-18 13:54 33.939436 -118.384447 263 104ft 23kts
10-Aug-18 13:55 33.934905 -118.437037 261 1264ft 189kts
10-Aug-18 13:56 33.928394 -118.492101 263 3099ft 213kts
10-Aug-18 13:57 33.922200 -118.567738 263 5169ft 246kts
10-Aug-18 13:58 33.916315 -118.667977 267 7431ft 282kts
10-Aug-18 13:59 33.916227 -118.748943 268 9168ft 300kts
10-Aug-18 14:00 33.916350 -118.852263 272 10948ft 328kts
10-Aug-18 14:01 33.919725 -118.959656 273 12972ft 344kts
10-Aug-18 14:02 33.945524 -119.066253 304 15528ft 343kts
10-Aug-18 14:03 33.997059 -119.164493 304 17974ft 352kts
10-Aug-18 14:04 34.069880 -119.241713 326 20159ft 357kts
10-Aug-18 14:05 34.143729 -119.303642 325 21950ft 366kts
10-Aug-18 14:06 34.222540 -119.370908 325 23664ft 376kts
10-Aug-18 14:07 34.303155 -119.440202 324 25222ft 385kts
10-Aug-18 14:08 34.391066 -119.516114 324 26730ft 395kts
10-Aug-18 14:09 34.471887 -119.606676 314 28154ft 402kts
10-Aug-18 14:10 34.550519 -119.703489 313 29451ft 410kts
10-Aug-18 14:11 34.630400 -119.802140 313 30856ft 412kts
10-Aug-18 14:12 34.710261 -119.900989 313 32271ft 409kts
10-Aug-18 14:13 34.789329 -119.999241 312 33466ft 408kts
10-Aug-18 14:14 34.867802 -120.097054 312 34004ft 421kts
10-Aug-18 14:15 34.946760 -120.195767 312 34076ft 444kts
10-Aug-18 14:16 35.029054 -120.298894 312 34080ft 444kts
10-Aug-18 14:17 35.113974 -120.402978 315 34072ft 445kts
10-Aug-18 14:18 35.190079 -120.488256 315 34062ft 445kts
10-Aug-18 14:19 35.280091 -120.589265 315 34048ft 445kts
10-Aug-18 14:20 35.367391 -120.687559 315 34044ft 445kts
10-Aug-18 14:21 35.457715 -120.789617 315 34040ft 445kts
10-Aug-18 14:22 35.553151 -120.885481 321 34044ft 447kts
10-Aug-18 14:23 35.651833 -120.976282 321 34045ft 447kts
10-Aug-18 14:24 35.750982 -121.068234 320 34028ft 449kts
10-Aug-18 14:25 35.850944 -121.161438 319 34027ft 453kts
10-Aug-18 14:26 35.951235 -121.255343 319 34027ft 454kts
10-Aug-18 14:27 36.050808 -121.348940 319 34039ft 453kts
10-Aug-18 14:28 36.149528 -121.430325 325 32561ft 449kts
10-Aug-18 14:29 36.248273 -121.506695 325 29643ft 421kts
10-Aug-18 14:30 36.344361 -121.581619 326 27152ft 408kts
10-Aug-18 14:31 36.435634 -121.653127 326 24821ft 390kts
10-Aug-18 14:32 36.524964 -121.723447 327 22533ft 377kts
10-Aug-18 14:33 36.611147 -121.791529 327 20307ft 366kts
10-Aug-18 14:34 36.695811 -121.858601 328 18140ft 356kts
10-Aug-18 14:35 36.783234 -121.908507 347 16044ft 346kts
10-Aug-18 14:36 36.875780 -121.933489 348 14064ft 338kts
10-Aug-18 14:37 36.965189 -121.959156 343 12160ft 332kts
10-Aug-18 14:38 37.047631 -121.990947 342 11159ft 287kts
10-Aug-18 14:39 37.118986 -122.018699 341 10333ft 278kts
10-Aug-18 14:40 37.187177 -122.045313 341 9365ft 277kts
10-Aug-18 14:41 37.259801 -122.073734 341 8233ft 272kts
10-Aug-18 14:42 37.330772 -122.101606 341 6880ft 266kts
10-Aug-18 14:43 37.399910 -122.128022 343 5359ft 255kts
10-Aug-18 14:44 37.467446 -122.151168 344 3554ft 252kts
10-Aug-18 14:45 37.530522 -122.177082 316 2157ft 218kts
10-Aug-18 14:46 37.557116 -122.229269 302 1928ft 151kts
10-Aug-18 14:47 37.575950 -122.274649 296 1339ft 143kts
10-Aug-18 14:48 37.594608 -122.317991 297 818ft 137kts
10-Aug-18 14:49 37.612288 -122.359695 298 40ft 130kts
10-Aug-18 14:50 37.620855 -122.380126 297 14ft 5kts
10-Aug-18 14:51 37.620415 -122.383414 165 14ft 13kts
10-Aug-18 14:52 37.618358 -122.382038 138 14ft 2kts

Navigation Log

Ident Type
Flight plan parsing failed, navigation log unavailable